Time;durP1;ratioP1;P1;durP2;ratioP2;P2;SDS_P1;SDS_P2;PMS_P1;PMS_P2;Temp;Humidity;BMP_temperature;BMP_pressure;BME280_temperature;BME280_humidity;BME280_pressure;Samples;Min_cycle;Max_cycle;Signal;HPM_P1;HPM_P2
2024/02/24 00:00:42;;;;;;;13.20;8.98;;;3.30;99.90;;;;;;4940428;29;20038;-91
2024/02/24 00:03:24;;;;;;;13.68;8.98;;;3.30;99.90;;;;;;4940233;29;20032;-89
2024/02/24 00:06:35;;;;;;;18.33;9.90;;;3.40;99.90;;;;;;4940957;29;20145;-90
2024/02/24 00:12:49;;;;;;;26.00;12.07;;;3.30;99.90;;;;;;4956585;29;20498;-90
2024/02/24 00:16:03;;;;;;;32.22;15.05;;;3.20;99.90;;;;;;4952869;29;20027;-90
2024/02/24 00:18:59;;;;;;;16.85;9.77;;;3.00;99.90;;;;;;4937469;29;20126;-89
2024/02/24 00:24:42;;;;;;;21.80;11.57;;;2.90;99.90;;;;;;4929877;28;20121;-89
2024/02/24 00:27:26;;;;;;;19.15;10.30;;;2.80;99.90;;;;;;4940578;29;20027;-90
2024/02/24 00:30:35;;;;;;;20.73;12.10;;;2.80;99.90;;;;;;4940252;29;20090;-90
2024/02/24 00:33:43;;;;;;;14.70;9.95;;;2.80;99.90;;;;;;4955703;28;20133;-90
2024/02/24 00:37:14;;;;;;;63.20;18.48;;;2.70;99.90;;;;;;4965712;28;20033;-89
2024/02/24 00:40:17;;;;;;;40.33;14.35;;;2.60;99.90;;;;;;4986974;28;20035;-90
2024/02/24 00:45:47;;;;;;;26.08;12.93;;;2.40;99.90;;;;;;4996273;28;20034;-90
2024/02/24 00:48:46;;;;;;;21.80;11.70;;;2.40;99.90;;;;;;4963730;28;20039;-89
2024/02/24 00:51:20;;;;;;;23.92;12.07;;;2.40;99.90;;;;;;4958673;28;20045;-90
2024/02/24 00:53:45;;;;;;;20.77;11.05;;;2.30;99.90;;;;;;4978803;28;20042;-89
2024/02/24 00:56:56;;;;;;;21.92;12.00;;;2.30;99.90;;;;;;4996302;28;20030;-90
2024/02/24 01:03:22;;;;;;;18.50;10.75;;;2.30;99.90;;;;;;4990340;28;20041;-89
2024/02/24 01:06:39;;;;;;;23.88;11.77;;;2.20;99.90;;;;;;4974048;28;20513;-89
2024/02/24 01:09:57;;;;;;;20.02;10.32;;;2.20;99.90;;;;;;4959472;28;20231;-90
2024/02/24 01:13:07;;;;;;;18.55;10.13;;;2.20;99.90;;;;;;4980303;28;20031;-88
2024/02/24 01:15:40;;;;;;;19.15;10.25;;;2.20;99.90;;;;;;4978687;28;20089;-89
2024/02/24 01:19:04;;;;;;;18.33;11.15;;;2.20;99.90;;;;;;4995349;28;20102;-89
2024/02/24 01:22:23;;;;;;;29.20;12.52;;;2.20;99.90;;;;;;4990372;28;20038;-89
2024/02/24 01:25:15;;;;;;;34.03;14.38;;;2.10;99.90;;;;;;4927594;28;20038;-89
2024/02/24 01:28:18;;;;;;;27.35;12.68;;;2.00;99.90;;;;;;4913026;28;20067;-90
2024/02/24 01:31:08;;;;;;;24.13;12.32;;;1.90;99.90;;;;;;4955697;28;20046;-89
2024/02/24 01:34:09;;;;;;;26.52;12.50;;;1.80;99.90;;;;;;4977402;28;20108;-89
2024/02/24 01:37:21;;;;;;;26.92;12.32;;;1.70;99.90;;;;;;4939348;28;20043;-88
2024/02/24 01:40:26;;;;;;;24.83;12.05;;;1.70;99.90;;;;;;4942732;29;20102;-89
2024/02/24 01:43:46;;;;;;;23.63;12.15;;;1.70;99.90;;;;;;4926847;29;20043;-89
2024/02/24 01:50:03;;;;;;;22.52;10.55;;;1.70;99.90;;;;;;4937502;29;20280;-89
2024/02/24 01:53:31;;;;;;;24.77;12.95;;;1.70;99.90;;;;;;4938139;29;20093;-90
2024/02/24 01:56:23;;;;;;;26.45;12.63;;;1.70;99.90;;;;;;4844265;29;20091;-89
2024/02/24 02:05:19;;;;;;;26.92;14.23;;;1.70;99.90;;;;;;4840795;29;20049;-89
2024/02/24 02:08:26;;;;;;;24.70;13.38;;;1.70;99.90;;;;;;4844868;29;20137;-88
2024/02/24 02:11:26;;;;;;;26.00;13.45;;;1.60;99.90;;;;;;4843477;29;20074;-89
2024/02/24 02:14:28;;;;;;;23.88;13.27;;;1.60;99.90;;;;;;4823102;29;20038;-89
2024/02/24 02:17:54;;;;;;;34.63;15.05;;;1.60;99.90;;;;;;4832651;29;20041;-88
2024/02/24 02:21:17;;;;;;;32.13;14.98;;;1.60;99.90;;;;;;4825504;29;20035;-90
2024/02/24 02:31:22;;;;;;;25.33;12.52;;;1.60;99.90;;;;;;4800084;29;20047;-89
2024/02/24 02:34:31;;;;;;;33.92;14.82;;;1.60;99.90;;;;;;4916498;29;20036;-88
2024/02/24 02:41:19;;;;;;;40.03;16.08;;;1.60;99.90;;;;;;4791190;30;20041;-89
2024/02/24 02:43:45;;;;;;;38.40;17.20;;;1.50;99.90;;;;;;4928696;23;20051;-89
2024/02/24 02:46:11;;;;;;;62.65;16.88;;;1.50;99.90;;;;;;4979270;28;20076;-89
2024/02/24 02:48:37;;;;;;;48.75;19.95;;;1.50;99.90;;;;;;4980809;28;20039;-89
2024/02/24 02:51:02;;;;;;;43.70;18.52;;;1.40;99.90;;;;;;4982993;28;20058;-90
2024/02/24 02:53:28;;;;;;;45.38;17.38;;;1.40;99.90;;;;;;4989325;28;20018;-89
2024/02/24 02:55:54;;;;;;;68.25;17.13;;;1.40;99.90;;;;;;4999692;28;20506;-89
2024/02/24 02:58:19;;;;;;;65.30;16.02;;;1.30;99.90;;;;;;4999432;28;20464;-89
2024/02/24 03:00:47;;;;;;;70.90;15.77;;;1.30;99.90;;;;;;5000945;28;20400;-89
2024/02/24 03:03:14;;;;;;;84.93;20.40;;;1.30;99.90;;;;;;5001634;28;20034;-89
2024/02/24 03:05:39;;;;;;;55.10;17.25;;;1.30;99.90;;;;;;5021162;28;20069;-88
2024/02/24 03:08:05;;;;;;;56.00;16.08;;;1.30;99.90;;;;;;5002313;28;20034;-89
2024/02/24 03:10:31;;;;;;;104.22;16.55;;;1.30;99.90;;;;;;5018485;28;20122;-88
2024/02/24 03:12:57;;;;;;;51.15;15.07;;;1.30;99.90;;;;;;5018622;28;20412;-90
2024/02/24 03:15:23;;;;;;;52.83;15.55;;;1.20;99.90;;;;;;4997990;28;20384;-88
2024/02/24 03:17:48;;;;;;;60.38;15.27;;;1.20;99.90;;;;;;4997445;28;20125;-89
2024/02/24 03:20:14;;;;;;;48.55;17.20;;;1.20;99.90;;;;;;4981484;28;20026;-88
2024/02/24 03:22:40;;;;;;;73.78;17.23;;;1.20;99.90;;;;;;4981395;28;20027;-90
2024/02/24 03:25:07;;;;;;;64.15;16.70;;;1.20;99.90;;;;;;5017769;28;20034;-89
2024/02/24 03:27:33;;;;;;;63.10;15.55;;;1.20;99.90;;;;;;5000709;28;20033;-89
2024/02/24 03:29:59;;;;;;;70.35;14.27;;;1.20;99.90;;;;;;5000105;28;20030;-90
2024/02/24 03:32:24;;;;;;;54.65;17.27;;;1.20;99.90;;;;;;5000069;28;20029;-89
2024/02/24 03:34:50;;;;;;;67.72;15.30;;;1.20;99.90;;;;;;4989451;28;20072;-89
2024/02/24 03:37:16;;;;;;;89.43;16.77;;;1.20;99.90;;;;;;4998126;28;20030;-89
2024/02/24 03:39:42;;;;;;;84.70;15.85;;;1.20;99.90;;;;;;4980959;28;20436;-90
2024/02/24 03:42:07;;;;;;;37.72;14.93;;;1.20;99.90;;;;;;4996711;28;20058;-89
2024/02/24 03:44:33;;;;;;;55.30;16.30;;;1.20;99.90;;;;;;4979322;28;20050;-89
2024/02/24 03:46:59;;;;;;;68.75;15.73;;;1.10;99.90;;;;;;4977540;28;20089;-89
2024/02/24 03:49:30;;;;;;;56.45;16.58;;;1.20;99.90;;;;;;4976128;28;20500;-88
2024/02/24 03:52:19;;;;;;;46.45;14.23;;;1.10;99.90;;;;;;4958798;28;20121;-90
2024/02/24 03:55:27;;;;;;;41.55;15.02;;;1.10;99.90;;;;;;4978580;28;20154;-89
2024/02/24 03:58:31;;;;;;;47.70;14.05;;;1.20;99.90;;;;;;4938101;29;20031;-89
2024/02/24 04:01:40;;;;;;;57.50;14.50;;;1.20;99.90;;;;;;4917250;28;20034;-88
2024/02/24 04:11:10;;;;;;;76.22;15.05;;;1.20;99.90;;;;;;4992689;28;20456;-89
2024/02/24 04:14:27;;;;;;;43.15;14.00;;;1.20;99.90;;;;;;4944111;28;20035;-89
2024/02/24 04:16:58;;;;;;;73.45;14.95;;;1.20;99.90;;;;;;4980448;28;20030;-90
2024/02/24 04:24:06;;;;;;;65.15;14.70;;;1.30;99.90;;;;;;4997892;28;20060;-89
2024/02/24 04:26:47;;;;;;;40.03;14.13;;;1.30;99.90;;;;;;4983171;28;20035;-89
2024/02/24 04:33:24;;;;;;;52.22;14.32;;;1.30;99.90;;;;;;4997208;28;20045;-88
2024/02/24 04:36:28;;;;;;;57.50;14.52;;;1.30;99.90;;;;;;4997155;28;20109;-89
2024/02/24 04:39:29;;;;;;;55.30;14.20;;;1.30;99.90;;;;;;4994026;28;20057;-89
2024/02/24 04:42:41;;;;;;;147.43;16.27;;;1.30;99.90;;;;;;4979671;28;20034;-89
2024/02/24 04:45:55;;;;;;;100.30;15.93;;;1.30;99.90;;;;;;4980552;28;20042;-90
2024/02/24 04:52:27;;;;;;;53.50;13.20;;;1.20;99.90;;;;;;4978057;28;20058;-89
2024/02/24 04:55:33;;;;;;;66.20;16.60;;;1.20;99.90;;;;;;4967679;28;20093;-90
2024/02/24 04:58:11;;;;;;;168.57;19.95;;;1.10;99.90;;;;;;4975764;28;20042;-90
2024/02/24 05:01:23;;;;;;;111.82;17.83;;;1.10;99.90;;;;;;4987473;28;20062;-88
2024/02/24 05:08:08;;;;;;;66.57;14.52;;;1.00;99.90;;;;;;5010520;28;20053;-89
2024/02/24 05:10:47;;;;;;;65.10;13.80;;;1.10;99.90;;;;;;4994922;28;20480;-88
2024/02/24 05:13:58;;;;;;;62.67;14.43;;;1.00;99.90;;;;;;4980619;28;20053;-89
2024/02/24 05:16:55;;;;;;;54.88;13.35;;;1.00;99.90;;;;;;4995080;28;20027;-89
2024/02/24 05:20:17;;;;;;;61.55;13.40;;;1.00;99.90;;;;;;4978672;28;20037;-89
2024/02/24 05:23:12;;;;;;;110.68;16.35;;;1.00;99.90;;;;;;4975830;28;20026;-89
2024/02/24 05:25:44;;;;;;;97.63;14.82;;;1.00;99.90;;;;;;4994710;28;20065;-89
2024/02/24 05:38:51;;;;;;;55.33;12.80;;;1.00;99.90;;;;;;4955702;29;20098;-89
2024/02/24 05:41:37;;;;;;;63.38;14.27;;;1.10;99.90;;;;;;4935722;29;20102;-89
2024/02/24 05:44:03;;;;;;;120.07;13.60;;;1.00;99.90;;;;;;4946012;28;20044;-89
2024/02/24 05:46:29;;;;;;;100.68;14.52;;;1.00;99.90;;;;;;4936487;29;20031;-89
2024/02/24 05:48:55;;;;;;;141.40;14.45;;;1.00;99.90;;;;;;4935972;29;20046;-88
2024/02/24 05:51:21;;;;;;;149.52;13.90;;;1.00;99.90;;;;;;4925354;29;20035;-89
2024/02/24 05:53:48;;;;;;;36.28;12.23;;;1.00;99.90;;;;;;4925435;29;20044;-88
2024/02/24 05:56:15;;;;;;;56.00;13.43;;;1.00;99.90;;;;;;4924637;29;20128;-89
2024/02/24 05:58:41;;;;;;;59.55;14.55;;;1.00;99.90;;;;;;4958577;28;20039;-89
2024/02/24 06:01:39;;;;;;;95.47;13.55;;;1.10;99.90;;;;;;4959367;28;20122;-89
2024/02/24 06:04:05;;;;;;;231.98;15.48;;;1.10;99.90;;;;;;4976032;28;20058;-89
2024/02/24 06:06:31;;;;;;;135.35;14.45;;;1.10;99.90;;;;;;4959877;28;20112;-89
2024/02/24 06:08:57;;;;;;;38.75;13.10;;;1.10;99.90;;;;;;4995535;28;20034;-89
2024/02/24 06:11:23;;;;;;;224.60;22.77;;;1.00;99.90;;;;;;4961981;28;20074;-90
2024/02/24 06:13:52;;;;;;;34.75;11.93;;;1.00;99.90;;;;;;4977924;28;20050;-89
2024/02/24 06:16:18;;;;;;;205.45;17.75;;;1.00;99.90;;;;;;4995210;28;20022;-90
2024/02/24 06:18:44;;;;;;;115.47;14.73;;;1.00;99.90;;;;;;4992921;28;20043;-89
2024/02/24 06:21:12;;;;;;;190.55;15.80;;;1.00;99.90;;;;;;4994519;28;20150;-89
2024/02/24 06:23:40;;;;;;;139.57;14.40;;;1.00;99.90;;;;;;4976550;28;20117;-89
2024/02/24 06:26:06;;;;;;;71.32;11.70;;;0.90;99.90;;;;;;4977721;28;20029;-89
2024/02/24 06:28:32;;;;;;;180.25;14.10;;;0.90;99.90;;;;;;4984939;28;20031;-89
2024/02/24 06:30:57;;;;;;;130.55;13.50;;;0.90;99.90;;;;;;4977330;28;20034;-89
2024/02/24 06:33:31;;;;;;;169.27;16.25;;;0.90;99.90;;;;;;4977911;28;20052;-89
2024/02/24 06:35:57;;;;;;;86.40;15.43;;;0.90;99.90;;;;;;4976282;28;20034;-90
2024/02/24 06:38:22;;;;;;;139.07;15.40;;;0.90;99.90;;;;;;4966690;28;20038;-89
2024/02/24 06:40:48;;;;;;;226.23;16.98;;;0.90;99.90;;;;;;4977128;28;20040;-89
2024/02/24 06:43:14;;;;;;;171.57;14.57;;;0.80;99.90;;;;;;4975406;28;20066;-90
2024/02/24 06:45:40;;;;;;;160.95;14.02;;;0.80;99.90;;;;;;4976128;28;20105;-89
2024/02/24 06:48:06;;;;;;;165.38;17.48;;;0.80;99.90;;;;;;4976767;28;20038;-90
2024/02/24 06:50:33;;;;;;;131.80;12.02;;;0.80;99.90;;;;;;4960956;28;20035;-89
2024/02/24 06:52:58;;;;;;;117.45;11.10;;;0.70;99.90;;;;;;4975850;28;20054;-89
2024/02/24 06:55:26;;;;;;;136.13;11.52;;;0.70;99.90;;;;;;4958068;28;20056;-89
2024/02/24 06:57:51;;;;;;;82.68;10.30;;;0.70;99.90;;;;;;4973985;28;20122;-89
2024/02/24 07:00:17;;;;;;;84.72;11.63;;;0.60;99.90;;;;;;4959000;28;20070;-89
2024/02/24 07:02:43;;;;;;;60.45;9.75;;;0.60;99.90;;;;;;4977136;28;20030;-89
2024/02/24 07:05:09;;;;;;;180.80;17.00;;;0.60;99.90;;;;;;4977039;28;20022;-89
2024/02/24 07:07:35;;;;;;;113.32;11.45;;;0.60;99.90;;;;;;4977635;28;20023;-88
2024/02/24 07:10:04;;;;;;;105.55;11.07;;;0.60;99.90;;;;;;4977395;28;20023;-89
2024/02/24 07:12:31;;;;;;;172.05;14.50;;;0.60;99.90;;;;;;4958220;28;20034;-89
2024/02/24 07:14:57;;;;;;;60.08;10.90;;;0.60;99.90;;;;;;4958119;28;20101;-89
2024/02/24 07:17:24;;;;;;;73.60;9.95;;;0.60;99.90;;;;;;4975563;28;20026;-89
2024/02/24 07:19:49;;;;;;;79.72;11.73;;;0.60;99.90;;;;;;4975087;28;20026;-90
2024/02/24 07:22:17;;;;;;;154.13;18.25;;;0.60;99.90;;;;;;4963569;28;20035;-89
2024/02/24 07:24:43;;;;;;;121.93;15.85;;;0.60;99.90;;;;;;4973524;28;20030;-90
2024/02/24 07:27:18;;;;;;;76.65;12.65;;;0.60;99.90;;;;;;4957878;28;20392;-90
2024/02/24 07:29:44;;;;;;;222.32;18.90;;;0.60;99.90;;;;;;4957239;28;20134;-89
2024/02/24 07:32:18;;;;;;;177.55;14.77;;;0.60;99.90;;;;;;4958067;28;20071;-89
2024/02/24 07:34:47;;;;;;;95.32;13.55;;;0.50;99.90;;;;;;4975647;28;20026;-90
2024/02/24 07:37:19;;;;;;;86.28;12.75;;;0.50;99.90;;;;;;4977319;28;20026;-89
2024/02/24 07:39:47;;;;;;;95.30;12.40;;;0.50;99.90;;;;;;4977394;28;20049;-90
2024/02/24 07:42:14;;;;;;;225.95;17.50;;;0.60;99.90;;;;;;4961132;28;20077;-90
2024/02/24 07:44:43;;;;;;;110.20;16.50;;;0.60;99.90;;;;;;4961233;28;20093;-89
2024/02/24 07:47:17;;;;;;;166.23;19.67;;;0.60;99.90;;;;;;4977737;28;20114;-89
2024/02/24 07:49:46;;;;;;;94.47;13.77;;;0.60;99.90;;;;;;4962140;28;20392;-90
2024/02/24 07:52:13;;;;;;;34.22;11.65;;;0.50;99.90;;;;;;4963563;28;20030;-91
2024/02/24 07:54:42;;;;;;;118.22;14.38;;;0.60;99.90;;;;;;4958988;28;20026;-88
2024/02/24 07:57:09;;;;;;;150.45;15.65;;;0.60;99.90;;;;;;4973851;28;20027;-90
2024/02/24 07:59:39;;;;;;;81.63;14.25;;;0.50;99.90;;;;;;4979533;28;20472;-89
2024/02/24 08:02:05;;;;;;;;;;;0.60;99.90;;;;;;4980392;28;20023;-89
2024/02/24 08:04:31;;;;;;;96.18;12.73;;;0.50;99.90;;;;;;4979368;28;19917;-89
2024/02/24 08:06:58;;;;;;;114.63;15.88;;;0.50;99.90;;;;;;4979197;28;20041;-88
2024/02/24 08:09:24;;;;;;;53.78;13.88;;;0.50;99.90;;;;;;4978991;28;20117;-89
2024/02/24 08:11:52;;;;;;;158.60;21.83;;;0.50;99.90;;;;;;4979610;28;20066;-90
2024/02/24 08:14:17;;;;;;;93.53;15.48;;;0.50;99.90;;;;;;4979752;28;20026;-90
2024/02/24 08:16:43;;;;;;;79.22;14.80;;;0.50;99.90;;;;;;4973799;28;20365;-90
2024/02/24 08:19:10;;;;;;;81.07;12.55;;;0.50;99.90;;;;;;4977291;28;20038;-90
2024/02/24 08:21:37;;;;;;;52.65;13.55;;;0.50;99.90;;;;;;4959702;28;20084;-91
2024/02/24 08:24:09;;;;;;;44.20;12.30;;;0.50;99.90;;;;;;4960273;28;20038;-90
2024/02/24 08:26:42;;;;;;;148.27;15.30;;;0.60;99.90;;;;;;4960357;28;20069;-89
2024/02/24 08:29:11;;;;;;;169.10;14.63;;;0.60;99.90;;;;;;4977486;28;20156;-90
2024/02/24 08:31:42;;;;;;;83.25;14.23;;;0.60;99.90;;;;;;4976299;28;20031;-90
2024/02/24 08:34:08;;;;;;;69.50;13.30;;;0.60;99.90;;;;;;4959916;28;20085;-90
2024/02/24 08:36:35;;;;;;;93.45;13.77;;;0.60;99.90;;;;;;4977345;28;20023;-91
2024/02/24 08:39:10;;;;;;;97.80;14.30;;;0.70;99.90;;;;;;4960110;28;20030;-90
2024/02/24 08:41:36;;;;;;;112.68;15.02;;;0.70;99.90;;;;;;4961507;28;20085;-90
2024/02/24 08:44:03;;;;;;;118.50;14.50;;;0.70;99.90;;;;;;4964959;28;20050;-91
2024/02/24 08:46:29;;;;;;;228.80;16.73;;;0.70;99.90;;;;;;4969922;28;20053;-92
2024/02/24 08:48:57;;;;;;;207.73;15.70;;;0.70;99.90;;;;;;4980627;28;20038;-91
2024/02/24 08:51:29;;;;;;;107.43;13.55;;;0.60;99.90;;;;;;4979457;28;20038;-90
2024/02/24 08:53:58;;;;;;;313.63;17.63;;;0.60;99.90;;;;;;4995985;28;20053;-92
2024/02/24 08:56:45;;;;;;;291.42;22.58;;;0.60;99.90;;;;;;4997230;28;20384;-92
2024/02/24 08:59:23;;;;;;;279.35;18.23;;;0.60;99.90;;;;;;4979897;28;20038;-91
2024/02/24 09:01:52;;;;;;;203.07;14.13;;;0.60;99.90;;;;;;4978996;28;20045;-91
2024/02/24 09:04:18;;;;;;;115.65;12.30;;;0.60;99.90;;;;;;4982451;28;20190;-91
2024/02/24 09:06:49;;;;;;;202.73;14.10;;;0.60;99.90;;;;;;4962754;28;20039;-91
2024/02/24 09:09:16;;;;;;;58.13;10.07;;;0.60;99.90;;;;;;4967084;28;20031;-91
2024/02/24 09:11:43;;;;;;;173.50;13.73;;;0.60;99.90;;;;;;4979855;28;20110;-91
2024/02/24 09:14:09;;;;;;;71.68;12.23;;;0.60;99.90;;;;;;4974296;28;20057;-91
2024/02/24 09:16:36;;;;;;;34.10;11.85;;;0.60;99.90;;;;;;4976508;28;20495;-90
2024/02/24 09:19:03;;;;;;;40.00;12.48;;;0.60;99.90;;;;;;4966370;28;20030;-89
2024/02/24 09:21:38;;;;;;;224.23;15.98;;;0.70;99.90;;;;;;4978201;28;20023;-91
2024/02/24 09:24:06;;;;;;;58.13;11.73;;;0.80;99.90;;;;;;4971576;28;20162;-89
2024/02/24 09:26:32;;;;;;;40.60;11.63;;;0.90;99.90;;;;;;4972863;28;20029;-90
2024/02/24 09:29:09;;;;;;;160.73;14.35;;;1.00;99.90;;;;;;4961567;28;20460;-90
2024/02/24 09:31:35;;;;;;;44.75;10.75;;;1.10;99.90;;;;;;4970979;28;20483;-90
2024/02/24 09:34:02;;;;;;;202.52;15.95;;;1.20;99.90;;;;;;4978813;28;20018;-92
2024/02/24 09:36:27;;;;;;;41.38;11.52;;;1.20;99.90;;;;;;4975104;28;20030;-90
2024/02/24 09:38:53;;;;;;;102.72;13.18;;;1.30;99.90;;;;;;4992898;28;20023;-90
2024/02/24 09:41:19;;;;;;;112.20;13.27;;;1.50;99.90;;;;;;4975833;28;20497;-91
2024/02/24 09:43:44;;;;;;;99.13;11.40;;;1.50;99.90;;;;;;4979208;28;20054;-91
2024/02/24 09:46:13;;;;;;;168.55;17.50;;;1.60;99.90;;;;;;4982789;28;20479;-92
2024/02/24 09:48:44;;;;;;;41.38;14.10;;;1.60;99.90;;;;;;4982530;28;20030;-91
2024/02/24 09:51:10;;;;;;;130.57;12.23;;;1.60;99.90;;;;;;4982790;28;20086;-90
2024/02/24 09:53:37;;;;;;;104.70;11.65;;;1.60;99.90;;;;;;4979334;28;20046;-89
2024/02/24 09:56:04;;;;;;;150.43;13.32;;;1.70;99.90;;;;;;4975887;28;20034;-87
2024/02/24 09:58:33;;;;;;;154.15;15.15;;;1.70;99.90;;;;;;4977377;28;20069;-88
2024/02/24 10:00:59;;;;;;;29.88;9.80;;;1.70;99.90;;;;;;4973250;28;20038;-89
2024/02/24 10:03:26;;;;;;;89.22;12.40;;;1.80;99.90;;;;;;4976913;28;20033;-91
2024/02/24 10:05:52;;;;;;;53.80;9.90;;;1.80;99.90;;;;;;4972329;28;20030;-90
2024/02/24 10:08:18;;;;;;;99.88;11.82;;;1.90;99.90;;;;;;4976379;28;20037;-89
2024/02/24 10:10:44;;;;;;;87.18;12.02;;;2.00;99.90;;;;;;4976019;28;20034;-89
2024/02/24 10:13:10;;;;;;;118.28;11.43;;;2.10;99.90;;;;;;4986581;28;20030;-89
2024/02/24 10:15:36;;;;;;;53.78;9.70;;;2.10;99.90;;;;;;4969417;28;20034;-91
2024/02/24 10:18:03;;;;;;;44.22;8.98;;;2.20;99.90;;;;;;4977695;28;20027;-89
2024/02/24 10:20:29;;;;;;;98.45;11.27;;;2.20;99.90;;;;;;4966793;28;20054;-89
2024/02/24 10:22:56;;;;;;;83.45;11.75;;;2.30;99.90;;;;;;4958839;28;20121;-89
2024/02/24 10:25:22;;;;;;;37.15;9.73;;;2.40;99.90;;;;;;4976666;28;20036;-90
2024/02/24 10:27:48;;;;;;;111.75;11.13;;;2.50;99.90;;;;;;4976842;28;20126;-89
2024/02/24 10:30:14;;;;;;;198.13;19.58;;;2.60;99.90;;;;;;4975429;28;20041;-90
2024/02/24 10:32:43;;;;;;;60.47;9.38;;;2.60;99.90;;;;;;4975069;28;20058;-90
2024/02/24 10:35:10;;;;;;;141.93;11.60;;;2.70;99.90;;;;;;4974472;28;20030;-87
2024/02/24 10:37:36;;;;;;;150.60;14.60;;;2.70;99.90;;;;;;4974280;28;20054;-90
2024/02/24 10:40:03;;;;;;;29.90;10.32;;;2.80;99.90;;;;;;4961537;28;20069;-89
2024/02/24 10:42:29;;;;;;;41.75;10.43;;;2.80;99.90;;;;;;4975853;28;20038;-89
2024/02/24 10:44:56;;;;;;;64.50;10.00;;;2.90;99.90;;;;;;4992015;28;20509;-88
2024/02/24 10:47:22;;;;;;;31.83;10.23;;;3.00;99.90;;;;;;4994992;28;20087;-86
2024/02/24 10:49:49;;;;;;;50.40;10.68;;;3.10;99.90;;;;;;4995501;28;20041;-87
2024/02/24 10:52:16;;;;;;;55.30;9.82;;;3.20;99.90;;;;;;4997282;28;20030;-88
2024/02/24 10:54:42;;;;;;;120.85;13.52;;;3.20;99.90;;;;;;4995868;28;20060;-89
2024/02/24 10:57:09;;;;;;;49.97;12.85;;;3.30;99.90;;;;;;4995836;28;20026;-88
2024/02/24 10:59:36;;;;;;;61.80;10.60;;;3.30;99.90;;;;;;4995708;28;20026;-85
2024/02/24 11:02:03;;;;;;;57.72;9.93;;;3.30;99.90;;;;;;4995915;28;20543;-88
2024/02/24 11:04:34;;;;;;;43.72;10.70;;;3.40;99.90;;;;;;4995662;28;20030;-89
2024/02/24 11:07:00;;;;;;;82.22;12.77;;;3.40;99.90;;;;;;4998213;28;20026;-88
2024/02/24 11:09:33;;;;;;;35.78;10.52;;;3.50;99.90;;;;;;5002118;28;20121;-88
2024/02/24 11:12:12;;;;;;;44.65;10.40;;;3.60;99.90;;;;;;5008530;28;20049;-87
2024/02/24 11:14:47;;;;;;;34.90;11.25;;;3.60;99.90;;;;;;5009297;28;20470;-88
2024/02/24 11:17:51;;;;;;;48.70;11.48;;;3.70;99.90;;;;;;5010023;28;20475;-87
2024/02/24 11:20:37;;;;;;;47.15;10.40;;;3.80;99.90;;;;;;4986977;28;20109;-88
2024/02/24 11:23:32;;;;;;;40.13;9.93;;;4.00;99.90;;;;;;5015649;28;20041;-86
2024/02/24 11:26:10;;;;;;;35.28;9.70;;;4.10;99.90;;;;;;4990901;28;20026;-89
2024/02/24 11:28:38;;;;;;;118.45;12.05;;;4.20;99.90;;;;;;5000129;28;20037;-89
2024/02/24 11:31:04;;;;;;;19.30;9.05;;;4.30;99.90;;;;;;5000076;28;20030;-89
2024/02/24 11:33:35;;;;;;;39.85;9.18;;;4.30;99.90;;;;;;4999032;28;20014;-88
2024/02/24 11:36:02;;;;;;;23.85;8.82;;;4.50;99.90;;;;;;4998935;28;20029;-89
2024/02/24 11:38:28;;;;;;;47.67;9.27;;;4.60;99.90;;;;;;5015983;28;20561;-90
2024/02/24 11:40:55;;;;;;;25.45;9.13;;;4.60;99.90;;;;;;4998785;28;20045;-88
2024/02/24 11:43:20;;;;;;;25.98;9.05;;;4.70;99.90;;;;;;4985122;28;20080;-88
2024/02/24 11:45:50;;;;;;;28.45;9.40;;;4.80;99.90;;;;;;4998550;28;20064;-89
2024/02/24 11:48:17;;;;;;;13.93;6.65;;;5.00;99.90;;;;;;4998680;28;20117;-87
2024/02/24 11:50:43;;;;;;;19.98;10.10;;;5.20;99.90;;;;;;4998543;28;20096;-88
2024/02/24 11:53:10;;;;;;;18.45;9.25;;;5.50;99.90;;;;;;4998829;28;20052;-89
2024/02/24 11:55:36;;;;;;;21.70;8.93;;;5.70;99.90;;;;;;4998488;28;20018;-90
2024/02/24 11:58:07;;;;;;;19.33;9.73;;;6.10;99.90;;;;;;4998964;28;20128;-90
2024/02/24 12:00:37;;;;;;;18.48;8.95;;;6.40;99.90;;;;;;5016206;28;20487;-88
2024/02/24 12:03:14;;;;;;;17.10;8.57;;;6.80;99.90;;;;;;4998898;28;20030;-87
2024/02/24 12:05:40;;;;;;;21.33;8.75;;;7.20;99.90;;;;;;4998554;28;20034;-88
2024/02/24 12:08:10;;;;;;;18.08;8.95;;;7.60;99.90;;;;;;4998589;28;20430;-88
2024/02/24 12:10:38;;;;;;;17.20;8.47;;;7.80;99.90;;;;;;4998030;28;20203;-87
2024/02/24 12:13:09;;;;;;;14.40;7.32;;;7.90;99.90;;;;;;4998300;28;20304;-88
2024/02/24 12:15:37;;;;;;;16.38;7.32;;;7.90;99.90;;;;;;4998405;28;20313;-87
2024/02/24 12:18:07;;;;;;;15.10;7.53;;;7.90;99.90;;;;;;4998012;28;20122;-88
2024/02/24 12:20:43;;;;;;;16.25;8.07;;;7.90;99.90;;;;;;4996968;28;20019;-89
2024/02/24 12:23:10;;;;;;;16.15;8.35;;;8.20;99.90;;;;;;4997999;28;20105;-89
2024/02/24 12:25:36;;;;;;;12.18;7.03;;;8.60;99.90;;;;;;4997824;28;20022;-89
2024/02/24 12:28:04;;;;;;;13.20;7.07;;;9.00;99.90;;;;;;4997843;28;20033;-89
2024/02/24 12:30:37;;;;;;;19.77;7.20;;;9.60;99.90;;;;;;4998102;28;20579;-89
2024/02/24 12:33:05;;;;;;;13.27;7.10;;;10.20;99.90;;;;;;4997578;28;20018;-89
2024/02/24 12:35:31;;;;;;;14.10;6.72;;;10.50;99.90;;;;;;4997680;28;20022;-90
2024/02/24 12:37:57;;;;;;;13.60;6.82;;;10.70;99.90;;;;;;4997639;28;20026;-88
2024/02/24 12:40:27;;;;;;;15.27;6.00;;;10.80;99.90;;;;;;4996865;28;20018;-88
2024/02/24 12:42:53;;;;;;;11.35;5.93;;;11.00;99.90;;;;;;4997647;28;20537;-87
2024/02/24 12:45:19;;;;;;;11.38;5.70;;;11.20;99.90;;;;;;4997189;28;20140;-87
2024/02/24 12:47:49;;;;;;;9.82;4.60;;;11.50;99.90;;;;;;4997311;28;20431;-87
2024/02/24 12:50:19;;;;;;;6.03;2.70;;;11.80;99.90;;;;;;4997100;28;20048;-87
2024/02/24 12:52:48;;;;;;;8.45;4.38;;;12.30;99.90;;;;;;4997272;28;20109;-89
2024/02/24 12:55:15;;;;;;;8.77;5.05;;;12.70;99.90;;;;;;4997343;28;20026;-86
2024/02/24 12:57:41;;;;;;;10.57;5.45;;;12.70;99.90;;;;;;4997074;28;20018;-88
2024/02/24 13:00:08;;;;;;;9.55;4.28;;;12.70;99.90;;;;;;5015976;28;20468;-88
2024/02/24 13:02:34;;;;;;;10.35;3.97;;;12.80;99.90;;;;;;4997155;28;20456;-88
2024/02/24 13:05:00;;;;;;;6.47;2.67;;;12.90;99.90;;;;;;4997211;28;20030;-88
2024/02/24 13:07:26;;;;;;;5.35;1.45;;;13.10;99.90;;;;;;4996672;28;20026;-88
2024/02/24 13:09:52;;;;;;;6.72;1.50;;;13.30;99.90;;;;;;4996832;28;20045;-88
2024/02/24 13:12:18;;;;;;;2.80;1.45;;;13.60;99.90;;;;;;4996917;28;20076;-89
2024/02/24 13:14:44;;;;;;;3.75;1.50;;;13.80;99.90;;;;;;4996783;28;20387;-89
2024/02/24 13:17:10;;;;;;;5.53;1.48;;;13.80;99.90;;;;;;4996850;28;20101;-88
2024/02/24 13:19:36;;;;;;;4.88;1.70;;;14.00;99.20;;;;;;4996624;28;20368;-89
2024/02/24 13:22:02;;;;;;;6.13;1.70;;;14.40;97.70;;;;;;4996556;28;20168;-88
2024/02/24 13:24:28;;;;;;;3.92;1.70;;;14.70;95.90;;;;;;4996921;28;20022;-87
2024/02/24 13:26:54;;;;;;;7.13;1.45;;;15.00;94.20;;;;;;5014491;28;20535;-87
2024/02/24 13:29:19;;;;;;;3.17;1.33;;;15.20;92.60;;;;;;4994241;28;20121;-87
2024/02/24 13:31:46;;;;;;;2.88;1.52;;;15.40;90.80;;;;;;4996311;28;20018;-88
2024/02/24 13:34:12;;;;;;;7.00;1.77;;;15.40;89.50;;;;;;4994836;28;20033;-89
2024/02/24 13:36:38;;;;;;;3.63;1.20;;;15.60;88.10;;;;;;4996226;28;20026;-88
2024/02/24 13:39:04;;;;;;;2.42;0.70;;;15.70;86.30;;;;;;4996338;28;20037;-88
2024/02/24 13:41:30;;;;;;;4.00;0.88;;;15.80;84.90;;;;;;4996296;28;20459;-89
2024/02/24 13:43:56;;;;;;;2.20;0.90;;;16.10;84.00;;;;;;4996121;28;20125;-89
2024/02/24 13:46:22;;;;;;;3.88;0.85;;;16.30;82.30;;;;;;4996417;28;20424;-88
2024/02/24 13:49:00;;;;;;;4.60;1.30;;;16.40;79.60;;;;;;4996424;28;20034;-89
2024/02/24 13:51:26;;;;;;;5.00;1.45;;;16.40;78.90;;;;;;4996479;28;20054;-88
2024/02/24 13:53:51;;;;;;;8.48;1.42;;;16.40;78.20;;;;;;4995830;28;20395;-87
2024/02/24 13:56:17;;;;;;;5.45;1.60;;;16.30;76.80;;;;;;4995960;28;20027;-87
2024/02/24 13:58:43;;;;;;;3.63;1.38;;;15.90;76.40;;;;;;4996879;28;20109;-88
2024/02/24 14:01:08;;;;;;;4.60;1.60;;;15.70;77.30;;;;;;4994069;28;20034;-88
2024/02/24 14:03:34;;;;;;;3.88;1.63;;;15.50;77.50;;;;;;4990507;28;20026;-89
2024/02/24 14:06:00;;;;;;;2.45;1.00;;;15.30;78.10;;;;;;4988656;28;20422;-88
2024/02/24 14:08:25;;;;;;;3.70;0.85;;;15.00;77.80;;;;;;4996512;28;20018;-88
2024/02/24 14:10:52;;;;;;;5.63;1.48;;;14.50;77.40;;;;;;4976834;28;20057;-88
2024/02/24 14:13:18;;;;;;;4.03;1.20;;;14.30;78.40;;;;;;4995227;28;20022;-87
2024/02/24 14:15:48;;;;;;;4.55;1.10;;;14.40;79.10;;;;;;4995026;28;20068;-88
2024/02/24 14:18:14;;;;;;;3.33;1.10;;;14.50;78.40;;;;;;4996747;28;20029;-87
2024/02/24 14:20:39;;;;;;;4.07;1.10;;;14.80;77.90;;;;;;4995614;28;20045;-87
2024/02/24 14:23:05;;;;;;;4.97;1.10;;;15.10;77.70;;;;;;4995160;28;20033;-87